Time;durP1;ratioP1;P1;durP2;ratioP2;P2;SDS_P1;SDS_P2;PMS_P1;PMS_P2;Temp;Humidity;BMP_temperature;BMP_pressure;BME280_temperature;BME280_humidity;BME280_pressure;Samples;Min_cycle;Max_cycle;Signal;HPM_P1;HPM_P2
2022/09/22 00:01:32;;;;;;;4.63;2.87;;;8.70;75.60;;;11.94;48.42;98296.16;5027620;28;20052;-54
2022/09/22 00:04:05;;;;;;;4.67;2.90;;;8.70;75.90;;;11.93;48.42;98302.50;5026844;28;20059;-56
2022/09/22 00:06:38;;;;;;;5.35;2.90;;;8.70;76.00;;;11.92;48.31;98296.34;5027066;28;20339;-54
2022/09/22 00:09:10;;;;;;;6.00;3.10;;;8.70;76.10;;;11.90;48.69;98292.13;5025945;28;20041;-53
2022/09/22 00:11:56;;;;;;;3.80;3.17;;;8.70;76.40;;;11.86;48.37;98293.38;5027990;28;20068;-54
2022/09/22 00:14:27;;;;;;;6.10;3.63;;;8.70;77.10;;;11.85;48.78;98299.72;5027237;28;20411;-56
2022/09/22 00:16:59;;;;;;;4.60;3.13;;;8.60;76.90;;;11.82;48.70;98296.38;5027237;28;20053;-52
2022/09/22 00:19:33;;;;;;;4.83;3.00;;;8.60;76.90;;;11.82;48.94;98292.84;5027039;28;20049;-55
2022/09/22 00:22:02;;;;;;;;;;;8.60;77.30;;;11.84;48.47;98288.19;5025549;28;20300;-56
2022/09/22 00:24:31;;;;;;;5.13;3.63;;;8.50;77.80;;;11.81;48.70;98283.19;5026833;28;19916;-55
2022/09/22 00:26:59;;;;;;;3.90;2.90;;;8.50;77.60;;;11.75;49.03;98281.13;5027482;28;20066;-54
2022/09/22 00:29:29;;;;;;;5.77;3.30;;;8.50;77.90;;;11.73;49.09;98277.75;5027882;28;20053;-56
2022/09/22 00:31:57;;;;;;;4.40;2.73;;;8.50;78.50;;;11.71;48.83;98285.06;5027349;28;20056;-55
2022/09/22 00:34:28;;;;;;;4.60;3.10;;;8.50;77.40;;;11.67;48.67;98278.38;5027429;28;20060;-57
2022/09/22 00:36:56;;;;;;;5.80;3.60;;;8.40;77.10;;;11.63;48.76;98273.38;5026946;28;20057;-57
2022/09/22 00:39:26;;;;;;;4.87;3.10;;;8.40;77.40;;;11.58;49.06;98274.81;5026151;28;20045;-55
2022/09/22 00:41:53;;;;;;;3.67;2.90;;;8.30;77.30;;;11.53;48.89;98275.25;5025973;28;20064;-54
2022/09/22 00:44:32;;;;;;;3.43;3.13;;;8.20;77.90;;;11.49;48.78;98265.88;5026238;28;20267;-55
2022/09/22 00:47:35;;;;;;;4.70;2.93;;;8.20;78.30;;;11.46;49.06;98271.53;5028269;28;20362;-56
2022/09/22 00:50:17;;;;;;;8.83;3.00;;;8.20;78.60;;;11.45;49.15;98261.00;5026547;28;20045;-55
2022/09/22 00:53:09;;;;;;;4.13;2.90;;;8.10;78.60;;;11.38;49.30;98261.63;5025914;28;20067;-54
2022/09/22 00:55:51;;;;;;;4.73;3.20;;;8.10;78.60;;;11.38;49.06;98261.63;5025257;28;20064;-56
2022/09/22 00:58:39;;;;;;;5.00;3.20;;;8.10;78.60;;;11.36;49.11;98268.94;5024918;28;20375;-57
2022/09/22 01:01:08;;;;;;;7.30;2.90;;;8.00;78.50;;;11.35;49.14;98269.06;5025654;28;20047;-54
2022/09/22 01:03:38;;;;;;;6.60;3.43;;;8.10;78.70;;;11.34;48.90;98270.91;5027096;28;20056;-56
2022/09/22 01:06:10;;;;;;;4.13;3.47;;;8.10;78.70;;;11.35;49.11;98267.25;5025643;28;20053;-55
2022/09/22 01:08:39;;;;;;;4.50;3.97;;;8.20;78.40;;;11.37;49.30;98277.75;5026496;28;20057;-54
2022/09/22 01:11:07;;;;;;;6.17;2.80;;;8.20;78.70;;;11.34;49.36;98273.56;5026819;28;20045;-55
2022/09/22 01:13:40;;;;;;;5.27;3.53;;;8.10;79.20;;;11.32;49.74;98277.38;5026060;28;20053;-54
2022/09/22 01:16:35;;;;;;;5.07;3.20;;;8.10;79.20;;;11.25;49.40;98273.66;5027382;28;20355;-55
2022/09/22 01:19:48;;;;;;;4.75;3.33;;;8.00;79.80;;;11.24;49.62;98264.78;5025991;28;20050;-54
2022/09/22 01:22:35;;;;;;;3.80;2.93;;;8.00;80.40;;;11.24;49.72;98267.44;5025474;28;20087;-57
2022/09/22 01:25:41;;;;;;;4.87;3.67;;;8.00;80.40;;;11.20;49.56;98264.25;5024117;28;20045;-55
2022/09/22 01:29:06;;;;;;;4.87;3.30;;;8.00;80.50;;;11.18;49.45;98273.38;5024327;28;20082;-55
2022/09/22 01:31:49;;;;;;;6.35;2.92;;;8.00;80.30;;;11.17;49.90;98261.91;5040250;28;20053;-55
2022/09/22 01:34:36;;;;;;;6.07;3.60;;;8.00;80.10;;;11.18;49.76;98268.88;5024906;28;20255;-55
2022/09/22 01:37:36;;;;;;;6.93;3.20;;;8.00;79.70;;;11.10;49.57;98268.81;5030827;28;20045;-55
2022/09/22 01:40:16;;;;;;;4.57;3.17;;;7.90;80.40;;;11.12;49.73;98263.34;5029448;28;20240;-53
2022/09/22 01:42:57;;;;;;;4.57;3.30;;;7.90;80.10;;;11.11;49.78;98270.50;5028573;28;20052;-54
2022/09/22 01:45:29;;;;;;;4.10;3.10;;;7.90;80.00;;;11.12;49.62;98268.66;5029943;28;20053;-55
2022/09/22 01:48:29;;;;;;;5.63;3.30;;;7.90;79.50;;;11.06;49.61;98263.94;5029621;28;20061;-52
2022/09/22 01:51:03;;;;;;;5.30;3.03;;;7.80;79.90;;;11.07;49.59;98269.13;5026555;28;20065;-54
2022/09/22 01:53:41;;;;;;;8.60;3.90;;;7.80;80.30;;;11.08;49.36;98278.78;5028949;28;20060;-54
2022/09/22 01:56:12;;;;;;;5.20;3.40;;;7.80;80.30;;;11.04;49.64;98270.22;5029158;28;20065;-54
2022/09/22 01:58:56;;;;;;;4.70;3.23;;;7.80;80.20;;;11.02;49.65;98266.06;5028717;28;20041;-55
2022/09/22 02:01:50;;;;;;;4.15;3.50;;;7.80;80.50;;;10.98;49.92;98270.84;5028236;28;20459;-55
2022/09/22 02:04:35;;;;;;;4.72;3.78;;;7.80;80.70;;;10.97;49.87;98268.31;5029174;28;20053;-57
2022/09/22 02:07:13;;;;;;;5.30;4.25;;;7.80;80.80;;;10.94;50.05;98266.78;5012001;28;20053;-55
2022/09/22 02:09:42;;;;;;;5.03;4.00;;;7.70;81.40;;;10.88;50.33;98256.72;5012655;28;20065;-56
2022/09/22 02:12:10;;;;;;;5.07;3.50;;;7.60;81.80;;;10.85;50.50;98257.03;5029900;28;20051;-56
2022/09/22 02:14:38;;;;;;;6.67;3.87;;;7.60;82.30;;;10.81;50.45;98256.47;5027706;28;20347;-56
2022/09/22 02:17:07;;;;;;;5.00;3.53;;;7.50;82.50;;;10.82;50.22;98252.00;5029808;28;20369;-55
2022/09/22 02:19:38;;;;;;;6.87;3.30;;;7.60;82.20;;;10.81;50.00;98260.97;5030221;28;20076;-55
2022/09/22 02:22:09;;;;;;;6.33;3.93;;;7.60;81.80;;;10.80;49.90;98259.31;5027966;28;20247;-55
2022/09/22 02:24:43;;;;;;;5.07;3.80;;;7.60;81.70;;;10.78;50.15;98255.94;5027876;28;20050;-55
2022/09/22 02:27:25;;;;;;;5.87;3.90;;;7.60;81.60;;;10.77;50.33;98254.25;5028727;28;20053;-55
2022/09/22 02:30:03;;;;;;;5.53;3.33;;;7.60;81.40;;;10.77;50.23;98248.94;5028158;28;20247;-56
2022/09/22 02:32:33;;;;;;;6.10;3.60;;;7.50;81.60;;;10.76;50.23;98253.44;5027548;28;20052;-55
2022/09/22 02:35:01;;;;;;;5.40;4.03;;;7.60;81.20;;;10.76;50.11;98252.56;5028759;28;20063;-56
2022/09/22 02:37:56;;;;;;;4.50;3.50;;;7.60;81.00;;;10.76;50.01;98253.44;5027722;28;20060;-53
2022/09/22 02:40:29;;;;;;;4.57;3.63;;;7.60;80.80;;;10.75;50.19;98245.59;5030217;28;20079;-55
2022/09/22 02:42:57;;;;;;;5.70;3.77;;;7.50;81.50;;;10.75;50.00;98242.91;5026970;28;20053;-54
2022/09/22 02:45:31;;;;;;;5.00;3.93;;;7.50;81.30;;;10.75;50.15;98245.59;5027432;28;20067;-55
2022/09/22 02:48:17;;;;;;;8.70;4.07;;;7.50;81.10;;;10.76;50.15;98244.59;5027447;28;20041;-56
2022/09/22 02:50:44;;;;;;;5.50;3.87;;;7.60;81.10;;;10.73;50.00;98242.22;5027520;28;20061;-54
2022/09/22 02:53:16;;;;;;;5.30;3.80;;;7.50;80.90;;;10.69;50.23;98239.03;5029041;28;20064;-55
2022/09/22 02:55:44;;;;;;;6.00;3.87;;;7.50;81.20;;;10.66;50.53;98246.47;5028397;28;20189;-56
2022/09/22 02:58:15;;;;;;;5.77;3.57;;;7.40;81.30;;;10.62;50.25;98236.13;5027792;28;20351;-53
2022/09/22 03:00:44;;;;;;;5.27;4.20;;;7.40;81.50;;;10.60;50.66;98240.75;5027594;28;20378;-54
2022/09/22 03:03:12;;;;;;;10.83;4.07;;;7.40;81.70;;;10.58;50.62;98234.72;5028351;28;20053;-56
2022/09/22 03:05:40;;;;;;;4.50;3.90;;;7.30;81.80;;;10.55;50.33;98234.19;5028137;28;20046;-53
2022/09/22 03:08:07;;;;;;;6.10;4.53;;;7.30;82.00;;;10.54;50.35;98229.84;5029937;28;20056;-55
2022/09/22 03:10:35;;;;;;;6.00;4.30;;;7.30;81.90;;;10.56;50.25;98234.03;5026485;28;20049;-54
2022/09/22 03:13:03;;;;;;;7.53;4.00;;;7.30;81.80;;;10.56;50.49;98236.69;5028081;28;20057;-55
2022/09/22 03:15:47;;;;;;;5.20;3.77;;;7.40;81.30;;;10.55;50.59;98239.50;5028377;28;20061;-55
2022/09/22 03:18:16;;;;;;;6.63;4.27;;;7.30;81.90;;;10.53;50.15;98239.66;5009749;28;20053;-55
2022/09/22 03:20:44;;;;;;;5.70;3.77;;;7.30;82.30;;;10.50;50.57;98236.44;5028356;28;20243;-54
2022/09/22 03:23:12;;;;;;;5.70;4.83;;;7.20;81.70;;;10.52;50.54;98232.63;5027561;28;20367;-57
2022/09/22 03:25:40;;;;;;;6.93;4.50;;;7.20;81.80;;;10.49;50.67;98232.94;5027018;28;20338;-54
2022/09/22 03:28:07;;;;;;;5.83;4.97;;;7.30;82.10;;;10.49;50.79;98237.41;5028668;28;20049;-54
2022/09/22 03:30:36;;;;;;;5.43;4.33;;;7.30;82.60;;;10.48;50.47;98230.44;5029115;28;20060;-54
2022/09/22 03:33:03;;;;;;;5.53;4.30;;;7.30;82.60;;;10.47;50.89;98229.59;5029249;28;20045;-52
2022/09/22 03:35:31;;;;;;;7.40;5.10;;;7.30;82.80;;;10.47;50.61;98231.41;5028559;28;20056;-58
2022/09/22 03:37:59;;;;;;;6.43;4.00;;;7.30;82.60;;;10.47;50.95;98231.41;5028052;28;20084;-55
2022/09/22 03:40:27;;;;;;;7.47;4.40;;;7.20;82.80;;;10.45;50.62;98220.91;5027165;28;20053;-58
2022/09/22 03:42:55;;;;;;;7.13;4.47;;;7.30;83.20;;;10.43;50.52;98226.38;5011233;28;20064;-56
2022/09/22 03:45:23;;;;;;;7.57;5.37;;;7.20;83.20;;;10.42;50.77;98232.69;5027390;28;20173;-54
2022/09/22 03:47:52;;;;;;;7.63;4.53;;;7.30;83.60;;;10.44;50.93;98228.03;5027590;28;20053;-56
2022/09/22 03:50:20;;;;;;;8.40;4.20;;;7.30;83.30;;;10.46;51.00;98227.06;5028735;28;20468;-56
2022/09/22 03:52:48;;;;;;;5.63;4.30;;;7.30;83.00;;;10.47;50.63;98223.41;5027619;28;20072;-57
2022/09/22 03:55:16;;;;;;;8.10;5.03;;;7.30;82.70;;;10.46;50.75;98232.41;5026782;28;20056;-57
2022/09/22 03:57:44;;;;;;;5.47;4.13;;;7.30;82.90;;;10.44;50.90;98219.22;5024470;28;20054;-55
2022/09/22 04:00:13;;;;;;;6.80;4.50;;;7.30;83.00;;;10.45;51.17;98223.59;5024790;28;20377;-55
2022/09/22 04:02:40;;;;;;;5.33;4.13;;;7.30;82.80;;;10.46;50.87;98214.59;5026219;28;20262;-55
2022/09/22 04:05:09;;;;;;;6.13;4.23;;;7.30;82.70;;;10.43;50.55;98221.06;5027428;28;20494;-55
2022/09/22 04:07:37;;;;;;;7.90;4.83;;;7.20;82.80;;;10.40;51.13;98218.69;5027672;28;20057;-54
2022/09/22 04:10:06;;;;;;;5.83;4.20;;;7.20;83.20;;;10.40;50.72;98217.84;5028161;28;20241;-57
2022/09/22 04:12:36;;;;;;;5.07;3.40;;;7.20;83.50;;;10.40;51.01;98221.34;5026671;28;20067;-57
2022/09/22 04:15:05;;;;;;;5.07;4.00;;;7.20;83.40;;;10.39;51.14;98218.81;5026180;28;20051;-57
2022/09/22 04:17:32;;;;;;;6.07;4.20;;;7.20;83.30;;;10.39;51.17;98218.81;5028925;28;20064;-57
2022/09/22 04:20:01;;;;;;;8.00;4.47;;;7.20;83.20;;;10.37;50.92;98221.66;5028722;28;20049;-58
2022/09/22 04:22:28;;;;;;;8.27;4.63;;;7.20;83.30;;;10.36;50.92;98219.13;5027031;28;20051;-56
2022/09/22 04:24:56;;;;;;;8.57;4.73;;;7.10;83.50;;;10.36;51.18;98216.47;5028184;28;20079;-57
2022/09/22 04:27:24;;;;;;;5.33;4.10;;;7.10;83.50;;;10.35;50.90;98215.63;5028799;28;20059;-58
2022/09/22 04:29:52;;;;;;;6.10;4.33;;;7.10;83.30;;;10.37;51.15;98210.13;5027209;28;20045;-57
2022/09/22 04:32:20;;;;;;;5.27;3.80;;;7.20;83.10;;;10.38;51.09;98211.84;5025727;28;20049;-58
2022/09/22 04:34:48;;;;;;;5.63;3.60;;;7.20;82.70;;;10.35;51.11;98210.31;5025715;28;20053;-56
2022/09/22 04:37:16;;;;;;;7.23;3.80;;;7.20;82.90;;;10.37;50.85;98207.47;5027408;28;20370;-57
2022/09/22 04:39:44;;;;;;;7.43;3.97;;;7.20;82.80;;;10.38;50.89;98214.50;5026716;28;20041;-57
2022/09/22 04:42:11;;;;;;;4.60;4.17;;;7.20;82.40;;;10.33;50.87;98211.41;5026443;28;20056;-57
2022/09/22 04:44:39;;;;;;;8.57;4.20;;;7.10;82.40;;;10.29;51.04;98207.34;5027136;28;20370;-56
2022/09/22 04:47:07;;;;;;;5.53;4.27;;;7.00;82.60;;;10.23;50.80;98211.44;5025010;28;20064;-57
2022/09/22 04:49:35;;;;;;;5.97;3.60;;;7.00;83.10;;;10.20;50.90;98209.91;5026351;28;20053;-58
2022/09/22 04:52:03;;;;;;;5.63;3.87;;;6.90;83.20;;;10.18;50.82;98216.38;5026156;28;20053;-58
2022/09/22 04:54:31;;;;;;;5.70;4.13;;;6.90;83.70;;;10.20;50.95;98215.22;5027491;28;20063;-56
2022/09/22 04:56:59;;;;;;;6.10;4.07;;;7.00;83.60;;;10.20;50.87;98206.41;5026112;28;20063;-57
2022/09/22 04:59:28;;;;;;;7.37;3.97;;;7.00;83.50;;;10.20;51.05;98209.91;5026823;28;20045;-58
2022/09/22 05:01:56;;;;;;;7.43;4.33;;;7.00;83.30;;;10.21;51.19;98216.88;5025678;28;20064;-57
2022/09/22 05:04:24;;;;;;;6.70;4.70;;;7.00;83.00;;;10.19;50.80;98218.03;5024570;28;20041;-58
2022/09/22 05:06:52;;;;;;;8.97;4.30;;;7.00;83.50;;;10.19;51.13;98215.38;5026049;28;20497;-57
2022/09/22 05:09:20;;;;;;;7.27;4.90;;;7.00;83.00;;;10.19;50.86;98224.19;5026215;28;20049;-57
2022/09/22 05:11:48;;;;;;;8.20;4.33;;;7.00;83.20;;;10.18;51.22;98221.69;5024571;28;20247;-57
2022/09/22 05:14:16;;;;;;;7.73;5.37;;;7.00;83.20;;;10.16;50.90;98221.00;5026392;28;20053;-57
2022/09/22 05:16:51;;;;;;;7.37;3.90;;;7.00;83.40;;;10.17;51.29;98220.81;5026453;28;20049;-56
2022/09/22 05:19:19;;;;;;;9.77;5.17;;;7.00;83.50;;;10.16;51.25;98219.16;5023426;28;20255;-57
2022/09/22 05:21:47;;;;;;;8.03;4.83;;;7.00;83.70;;;10.19;50.95;98228.66;5024698;28;20359;-56
2022/09/22 05:24:15;;;;;;;8.20;4.10;;;7.00;83.30;;;10.19;51.14;98232.16;5026609;28;20049;-56
2022/09/22 05:26:43;;;;;;;7.80;4.63;;;7.00;83.50;;;10.18;51.39;98235.81;5026672;28;20060;-56
2022/09/22 05:29:10;;;;;;;11.20;4.90;;;7.00;84.00;;;10.20;51.36;98238.34;5025569;28;20055;-55
2022/09/22 05:31:38;;;;;;;9.03;4.73;;;7.00;84.10;;;10.20;51.60;98239.16;5025767;28;20053;-56
2022/09/22 05:34:06;;;;;;;6.80;4.13;;;7.00;84.20;;;10.20;51.48;98241.84;5026403;28;20547;-57
2022/09/22 05:36:34;;;;;;;5.37;3.97;;;7.00;84.40;;;10.18;51.62;98238.47;5026342;28;20057;-54
2022/09/22 05:39:02;;;;;;;8.73;5.20;;;7.00;84.70;;;10.17;51.88;98236.78;5026376;28;20051;-55
2022/09/22 05:41:29;;;;;;;7.53;5.10;;;7.00;85.30;;;10.15;51.60;98240.59;5026007;28;20049;-56
2022/09/22 05:43:57;;;;;;;5.70;4.20;;;7.00;85.40;;;10.14;51.65;98242.41;5024379;28;20051;-52
2022/09/22 05:46:25;;;;;;;6.83;4.40;;;7.00;85.70;;;10.13;52.10;98239.88;5025356;28;20054;-56
2022/09/22 05:48:53;;;;;;;7.23;4.67;;;7.00;86.20;;;10.13;52.24;98246.03;5024313;28;20048;-56
2022/09/22 05:51:20;;;;;;;6.77;4.70;;;6.90;86.50;;;10.14;52.08;98246.88;5026976;28;20053;-56
2022/09/22 05:53:48;;;;;;;7.50;4.93;;;7.00;87.30;;;10.13;51.98;98248.69;5026710;28;20432;-56
2022/09/22 05:56:16;;;;;;;9.13;5.60;;;6.90;88.00;;;10.13;52.27;98242.56;5023714;28;20042;-56
2022/09/22 05:58:46;;;;;;;7.07;5.10;;;6.90;88.90;;;10.16;51.90;98247.59;5026497;28;20055;-56
2022/09/22 06:01:14;;;;;;;6.70;4.40;;;7.00;89.30;;;10.18;52.36;98243.81;5026961;28;20076;-55
2022/09/22 06:03:42;;;;;;;6.90;4.80;;;7.00;89.20;;;10.18;52.47;98243.81;5024786;28;20053;-55
2022/09/22 06:06:10;;;;;;;9.40;5.77;;;7.00;89.70;;;10.21;52.67;98250.66;5026183;28;20060;-55
2022/09/22 06:08:37;;;;;;;7.77;4.93;;;7.00;90.70;;;10.22;52.43;98253.16;5024821;28;20054;-55
2022/09/22 06:11:06;;;;;;;8.93;5.23;;;7.00;90.60;;;10.27;52.70;98252.72;5025611;28;20056;-55
2022/09/22 06:13:34;;;;;;;5.57;4.50;;;7.00;91.30;;;10.31;52.51;98250.66;5025636;28;20053;-55
2022/09/22 06:16:03;;;;;;;7.77;4.90;;;7.10;91.80;;;10.34;52.65;98245.06;5025349;28;20247;-59
2022/09/22 06:18:32;;;;;;;9.10;5.10;;;7.10;92.30;;;10.39;52.70;98248.97;5026046;28;20057;-56
2022/09/22 06:21:00;;;;;;;7.33;5.00;;;7.20;92.50;;;10.45;52.46;98244.88;5027741;28;20049;-57
2022/09/22 06:23:28;;;;;;;5.77;4.40;;;7.30;92.40;;;10.52;52.55;98250.44;5029662;28;20049;-57
2022/09/22 06:25:57;;;;;;;4.87;4.10;;;7.40;92.50;;;10.59;52.60;98246.22;5029424;28;20056;-54
2022/09/22 06:28:25;;;;;;;4.93;4.00;;;7.50;92.80;;;10.66;52.68;98239.31;5029120;28;20075;-56
2022/09/22 06:30:59;;;;;;;8.50;4.70;;;7.60;92.50;;;10.73;52.58;98237.72;5029460;28;20049;-56
2022/09/22 06:33:28;;;;;;;5.72;3.92;;;7.70;92.20;;;10.79;52.78;98233.66;5011376;28;20252;-57
2022/09/22 06:36:00;;;;;;;5.77;4.27;;;7.70;92.30;;;10.83;52.83;98233.19;5028042;28;20045;-56
2022/09/22 06:38:30;;;;;;;6.73;3.90;;;7.80;92.40;;;10.92;52.74;98233.31;5027953;28;20056;-55
2022/09/22 06:41:01;;;;;;;6.70;4.70;;;7.80;91.80;;;10.95;52.66;98233.84;5027679;28;20060;-53
2022/09/22 06:43:29;;;;;;;5.93;4.80;;;7.90;92.00;;;11.04;52.79;98243.59;5028925;28;20323;-55
2022/09/22 06:45:59;;;;;;;5.60;4.70;;;8.00;92.00;;;11.09;53.04;98248.50;5029411;28;20059;-58
2022/09/22 06:48:27;;;;;;;7.07;4.67;;;8.00;91.80;;;11.12;52.77;98242.00;5030961;28;20056;-58
2022/09/22 06:50:54;;;;;;;5.83;4.97;;;8.10;91.80;;;11.17;52.87;98251.25;5026841;28;20059;-58
2022/09/22 06:53:23;;;;;;;4.67;4.03;;;8.10;91.60;;;11.23;53.13;98244.47;5028105;28;20417;-58
2022/09/22 06:55:54;;;;;;;5.00;4.33;;;8.10;91.80;;;11.28;53.16;98244.00;5028321;28;20053;-57
2022/09/22 06:58:22;;;;;;;6.30;4.20;;;8.20;91.70;;;11.32;52.73;98248.91;5029151;28;20045;-57
2022/09/22 07:00:50;;;;;;;6.77;5.10;;;8.30;91.60;;;11.38;52.83;98250.09;5026575;28;20103;-58
2022/09/22 07:03:21;;;;;;;5.90;5.13;;;8.30;91.60;;;11.41;52.92;98247.13;5011988;28;20049;-58
2022/09/22 07:05:53;;;;;;;6.00;4.70;;;8.40;91.80;;;11.49;53.21;98243.72;5028321;28;20112;-56
2022/09/22 07:08:23;;;;;;;6.67;4.77;;;8.50;92.00;;;11.52;53.13;98246.91;5028541;28;20255;-55
2022/09/22 07:10:53;;;;;;;6.87;4.57;;;8.60;91.50;;;11.58;53.29;98246.31;5027244;28;20327;-53
2022/09/22 07:13:28;;;;;;;6.20;4.60;;;8.60;91.60;;;11.62;53.03;98246.84;5027412;28;20053;-58
2022/09/22 07:16:01;;;;;;;6.93;5.50;;;8.60;91.40;;;11.67;53.30;98238.38;5027410;28;20227;-57
2022/09/22 07:18:29;;;;;;;8.13;5.47;;;8.70;92.10;;;11.71;53.23;98245.06;5025863;28;20057;-57
2022/09/22 07:21:09;;;;;;;6.13;5.23;;;8.70;91.80;;;11.77;53.29;98244.47;5028477;28;20390;-54
2022/09/22 07:23:37;;;;;;;5.43;4.50;;;8.80;91.70;;;11.80;53.49;98241.47;5029074;28;20052;-59
2022/09/22 07:26:10;;;;;;;6.40;4.83;;;8.80;91.50;;;11.88;53.10;98238.88;5029136;28;20049;-59
2022/09/22 07:28:39;;;;;;;8.83;5.63;;;8.90;91.20;;;11.92;53.04;98245.63;5028201;28;20378;-59
2022/09/22 07:31:11;;;;;;;5.77;4.67;;;8.90;91.30;;;11.97;52.85;98237.16;5027890;28;20060;-59
2022/09/22 07:33:42;;;;;;;9.07;5.67;;;9.00;91.20;;;12.01;53.17;98238.50;5025101;28;20047;-59
2022/09/22 07:36:21;;;;;;;9.27;5.70;;;9.10;91.20;;;12.08;53.42;98244.03;5029508;28;20351;-56
2022/09/22 07:38:52;;;;;;;8.40;5.80;;;9.10;91.50;;;12.12;52.97;98242.78;5027655;28;20057;-54
2022/09/22 07:41:28;;;;;;;7.40;5.47;;;9.20;91.30;;;12.16;53.40;98246.78;5027135;28;20098;-56
2022/09/22 07:46:46;;;;;;;11.10;5.63;;;9.20;90.70;;;12.23;52.76;98239.81;5012529;28;20057;-56
2022/09/22 07:49:14;;;;;;;8.20;6.00;;;9.30;90.30;;;12.28;53.21;98240.19;5028002;28;20241;-57
2022/09/22 07:51:42;;;;;;;10.90;5.90;;;9.30;90.10;;;12.33;53.29;98239.72;5028285;28;20057;-55
2022/09/22 07:54:10;;;;;;;7.43;5.80;;;9.40;89.80;;;12.39;53.27;98247.94;5026370;28;20059;-57
2022/09/22 07:56:43;;;;;;;7.43;6.07;;;9.50;89.90;;;12.44;52.85;98244.78;5029326;28;20064;-56
2022/09/22 07:59:15;;;;;;;7.15;5.45;;;9.50;89.70;;;12.50;53.11;98240.66;5027309;28;20067;-57
2022/09/22 08:01:47;;;;;;;7.27;5.10;;;9.60;89.20;;;12.55;52.96;98241.03;5026462;28;20355;-56
2022/09/22 08:04:40;;;;;;;6.13;4.73;;;9.70;89.00;;;12.61;52.92;98246.53;5026945;28;20042;-55
2022/09/22 08:07:08;;;;;;;8.97;5.33;;;9.70;88.40;;;12.67;52.68;98231.72;5037144;28;20049;-56
2022/09/22 08:09:35;;;;;;;5.27;4.30;;;9.80;88.20;;;12.69;52.88;98229.72;5033037;28;20059;-55
2022/09/22 08:12:04;;;;;;;6.00;4.50;;;9.80;88.10;;;12.74;52.62;98226.59;5046641;28;20048;-57
2022/09/22 08:14:31;;;;;;;5.10;3.80;;;9.80;87.70;;;12.80;52.71;98225.94;5035444;28;20049;-57
2022/09/22 08:16:59;;;;;;;6.27;3.83;;;9.90;87.00;;;12.87;52.40;98235.00;5026995;28;20053;-55
2022/09/22 08:19:28;;;;;;;5.10;3.60;;;10.00;86.10;;;12.88;52.04;98228.63;5027929;28;20060;-57
2022/09/22 08:21:57;;;;;;;5.23;3.90;;;10.00;85.30;;;12.94;51.99;98221.81;5026130;28;20595;-57
2022/09/22 08:24:25;;;;;;;4.47;3.83;;;10.10;84.30;;;12.98;51.85;98223.97;5025214;28;20053;-57
2022/09/22 08:26:54;;;;;;;8.20;4.87;;;10.10;84.00;;;13.03;51.85;98223.50;5027776;28;20045;-55
2022/09/22 08:29:23;;;;;;;5.33;3.97;;;10.20;83.30;;;13.10;51.71;98229.84;5027213;28;20050;-57
2022/09/22 08:31:51;;;;;;;7.27;4.80;;;10.30;83.00;;;13.14;52.01;98227.69;5026309;28;20058;-57
2022/09/22 08:34:21;;;;;;;8.20;4.20;;;10.30;82.90;;;13.18;51.86;98224.56;5026697;28;20049;-56
2022/09/22 08:36:49;;;;;;;6.37;4.63;;;10.40;82.60;;;13.23;51.91;98224.06;5027076;28;20072;-55
2022/09/22 08:39:17;;;;;;;6.53;4.63;;;10.50;82.60;;;13.28;51.97;98226.22;5029684;28;20056;-55
2022/09/22 08:42:04;;;;;;;6.40;4.17;;;10.60;82.60;;;13.33;51.96;98224.75;5045960;28;20043;-57
2022/09/22 08:44:58;;;;;;;6.07;4.33;;;10.60;81.90;;;13.43;51.82;98231.81;5045267;28;20756;-57
2022/09/22 08:53:49;;;;;;;7.53;4.20;;;10.90;81.50;;;13.70;51.79;98228.81;5031740;28;20057;-56
2022/09/22 08:56:47;;;;;;;6.93;3.90;;;11.00;81.20;;;13.76;51.74;98233.53;5030435;28;20048;-57
2022/09/22 08:59:29;;;;;;;6.00;3.87;;;11.10;80.30;;;13.86;51.46;98228.00;5046697;28;20061;-56
2022/09/22 09:02:28;;;;;;;4.97;3.67;;;11.10;79.90;;;13.89;51.46;98221.47;5044900;28;20057;-58
2022/09/22 09:05:37;;;;;;;7.23;3.77;;;11.20;79.10;;;13.99;51.38;98227.47;5045930;28;20672;-57
2022/09/22 09:08:21;;;;;;;4.77;3.00;;;11.20;78.80;;;14.07;50.95;98230.13;5045861;28;20053;-58
2022/09/22 09:11:15;;;;;;;5.40;3.83;;;11.30;78.10;;;14.15;50.74;98231.97;5046719;28;20082;-59
2022/09/22 09:14:25;;;;;;;6.40;3.67;;;11.40;77.80;;;14.20;50.97;98226.94;5038611;28;20053;-59
2022/09/22 09:17:02;;;;;;;4.63;2.90;;;11.50;77.20;;;14.29;50.67;98231.28;5024717;28;20052;-59
2022/09/22 09:20:11;;;;;;;6.28;3.13;;;11.50;77.40;;;14.33;50.46;98223.75;5025283;28;20049;-59
2022/09/22 09:22:44;;;;;;;5.40;2.70;;;11.60;76.00;;;14.42;50.04;98221.88;5024209;28;20419;-59
2022/09/22 09:25:40;;;;;;;3.97;2.92;;;11.70;75.60;;;14.45;50.31;98217.00;5024124;28;20051;-59
2022/09/22 09:28:20;;;;;;;4.60;3.33;;;11.80;74.60;;;14.57;49.96;98214.84;5025758;28;20421;-59
2022/09/22 09:31:12;;;;;;;4.50;3.30;;;11.80;75.00;;;14.63;49.89;98216.81;5025142;28;20041;-59
2022/09/22 09:34:04;;;;;;;2.63;2.17;;;11.90;74.90;;;14.70;49.83;98216.97;5008430;28;20075;-57
2022/09/22 09:36:40;;;;;;;5.73;2.90;;;12.00;74.70;;;14.74;49.25;98213.75;5026146;28;20404;-57
2022/09/22 09:39:44;;;;;;;3.30;2.40;;;12.00;73.30;;;14.79;49.67;98210.56;5027028;28;20045;-57
2022/09/22 09:42:32;;;;;;;4.72;3.03;;;12.20;72.40;;;14.93;49.16;98214.38;5023545;28;20049;-56
2022/09/22 09:45:01;;;;;;;3.53;2.75;;;12.20;72.60;;;14.96;48.92;98216.69;5025539;28;20072;-57
2022/09/22 09:47:57;;;;;;;4.53;2.40;;;12.30;72.90;;;15.02;48.93;98212.47;5026087;28;20055;-58
2022/09/22 09:50:30;;;;;;;4.32;3.03;;;12.40;70.40;;;15.08;48.34;98212.63;5025776;28;20068;-58
2022/09/22 09:52:59;;;;;;;7.47;2.83;;;12.40;71.50;;;15.13;48.60;98209.41;5025682;28;20053;-58
2022/09/22 09:55:27;;;;;;;3.88;2.40;;;12.50;71.60;;;15.22;48.57;98211.03;5027669;28;20041;-58
2022/09/22 09:58:10;;;;;;;4.07;3.05;;;12.60;71.60;;;15.27;48.49;98211.31;5030741;28;20068;-57
2022/09/22 10:00:58;;;;;;;4.70;3.93;;;12.60;71.10;;;15.34;48.42;98208.75;5029030;28;20328;-58
2022/09/22 10:03:31;;;;;;;5.28;2.90;;;12.60;70.30;;;15.38;48.26;98207.41;5028410;28;20059;-58
2022/09/22 10:06:09;;;;;;;4.47;3.05;;;12.70;71.20;;;15.44;48.32;98205.84;5029313;28;20064;-58
2022/09/22 10:08:50;;;;;;;4.47;2.80;;;12.70;71.00;;;15.50;48.19;98213.19;5027941;28;20056;-58
2022/09/22 10:11:31;;;;;;;4.13;2.85;;;12.80;70.00;;;15.55;47.96;98203.56;5027983;28;20056;-58
2022/09/22 10:13:59;;;;;;;4.00;2.47;;;12.90;69.50;;;15.61;47.44;98212.75;5028932;28;20061;-58
2022/09/22 10:16:30;;;;;;;4.10;2.30;;;12.90;69.50;;;15.66;47.04;98207.66;5029986;28;20237;-57
2022/09/22 10:18:58;;;;;;;3.78;2.20;;;13.00;68.80;;;15.69;46.97;98203.81;5030501;28;20049;-58
2022/09/22 10:21:27;;;;;;;5.80;2.15;;;13.00;68.20;;;15.74;47.17;98191.56;5019951;28;20060;-58
2022/09/22 10:23:58;;;;;;;4.35;2.10;;;13.10;68.90;;;15.82;46.93;98197.84;5017002;28;20045;-58
2022/09/22 10:26:31;;;;;;;4.55;2.20;;;13.20;68.40;;;15.86;46.67;98202.69;5011081;28;20063;-58
2022/09/22 10:29:19;;;;;;;3.25;2.13;;;13.20;67.90;;;15.88;46.78;98187.22;5028940;28;20057;-58
2022/09/22 10:32:02;;;;;;;4.03;2.40;;;13.30;64.80;;;15.96;46.74;98188.19;5044252;28;20080;-59
2022/09/22 10:34:35;;;;;;;3.20;1.92;;;13.30;66.20;;;15.98;46.18;98184.28;5029689;28;20047;-58
2022/09/22 10:37:09;;;;;;;2.15;1.42;;;13.30;67.20;;;16.04;46.12;98183.56;5029360;28;20053;-60
2022/09/22 10:39:48;;;;;;;1.65;1.38;;;13.40;66.00;;;16.10;46.05;98180.13;5028728;28;20047;-57
2022/09/22 10:42:44;;;;;;;2.05;1.60;;;13.40;66.40;;;16.16;46.14;98188.47;5028273;28;20084;-59
2022/09/22 10:45:18;;;;;;;2.80;1.85;;;13.50;64.00;;;16.23;45.67;98176.81;5028180;28;20075;-60
2022/09/22 10:48:14;;;;;;;5.32;1.75;;;13.60;65.40;;;16.28;45.60;98176.25;5028432;28;20064;-59
2022/09/22 10:50:48;;;;;;;2.80;1.80;;;13.70;62.70;;;16.36;45.02;98167.28;5027838;28;20047;-60
2022/09/22 10:54:05;;;;;;;;;;;13.70;62.30;;;16.48;45.39;98166.63;5029225;28;20233;-58
2022/09/22 10:56:50;;;;;;;2.83;1.63;;;13.70;61.30;;;16.50;44.85;98166.44;5028545;28;19917;-58
2022/09/22 10:59:32;;;;;;;2.75;1.90;;;13.80;63.10;;;16.51;44.86;98162.72;5027545;28;20064;-59
2022/09/22 11:02:38;;;;;;;2.33;1.45;;;13.80;63.30;;;16.57;44.82;98167.34;5027418;28;20269;-58
2022/09/22 11:14:53;;;;;;;2.75;1.42;;;14.20;60.90;;;16.87;44.42;98167.38;5027293;28;20057;-57